ROMMA est une association bénévole à but non lucratif. Votre soutien est indispensable : ADHERER à ROMMA ou FAIRE un DON

La Ferrière - (38, Isère)

Belledonne - Vallée du Haut Bréda (1000 m)   Longitude: 06° 04' 55" E   Latitude: 45° 18' 16" N Station romma n°33
 

Détail journalier du     <<     >>

Température Precipitation Humidité Pression Vent Dir Rafale Dir. rafale
Heure (°C) (mm) (%) (hPa) (km/h) (km/h)
01:00 8.309110191O3O
02:00 7.809210191O5O
03:00 7.809310192O7O
04:00 7.809410182O4O
05:00 7.309510182O7O
06:00 7.409510182O7O
07:00 7.409610172O7O
08:00 8.709710172O7O
09:00 8.609710173O7O
10:00 9.609710182O7O
11:00 15.509310174O8SE
12:00 18.607910187SSO11SSO
13:00 20.307110176N13N
14:00 23.106610178NE15NE
15:00 25.005210169NNE22NNE
16:00 25.104510166E15SSO
17:00 24.303910167E18SSE
18:00 21.504010166SSE21ONO
19:00 14.505110173SSO8SSO
20:00 12.305910171SSO4SSO
21:00 10.006610171SSO3SSO
22:00 10.107010181SSO5SSO
23:00 8.307410183SSO8SSO
minuit 8.207710182SSO7SSO

Graphique du 13-10-2019

 

Serveur OMMA